Time;durP1;ratioP1;P1;durP2;ratioP2;P2;SDS_P1;SDS_P2;PMS_P1;PMS_P2;Temp;Humidity;BMP_temperature;BMP_pressure;BME280_temperature;BME280_humidity;BME280_pressure;Samples;Min_cycle;Max_cycle;Signal;HPM_P1;HPM_P2
2020/12/23 00:01:29;;;;;;;41.70;22.57;;;;;;;;;;5053267;28;20429;-53
2020/12/23 00:03:56;;;;;;;43.27;22.90;;;;;;;;;;5052312;28;20413;-54
2020/12/23 00:06:22;;;;;;;36.50;21.80;;;;;;;;;;5053696;28;20401;-50
2020/12/23 00:08:48;;;;;;;39.43;22.80;;;;;;;;;;5053366;28;20401;-50
2020/12/23 00:11:15;;;;;;;38.70;22.93;;;;;;;;;;5053087;28;20431;-50
2020/12/23 00:13:41;;;;;;;44.53;24.73;;;;;;;;;;5049896;28;20447;-50
2020/12/23 00:16:07;;;;;;;42.57;23.40;;;;;;;;;;5053235;28;20448;-50
2020/12/23 00:18:33;;;;;;;42.17;22.67;;;;;;;;;;5053324;28;20402;-50
2020/12/23 00:20:59;;;;;;;42.27;23.03;;;;;;;;;;5053099;28;20873;-50
2020/12/23 00:23:25;;;;;;;37.83;22.03;;;;;;;;;;5052830;28;20423;-50
2020/12/23 00:25:51;;;;;;;38.07;22.80;;;;;;;;;;5052922;28;20412;-50
2020/12/23 00:28:17;;;;;;;35.40;20.87;;;;;;;;;;5052961;28;20496;-50
2020/12/23 00:30:43;;;;;;;41.63;22.47;;;;;;;;;;5052823;28;21008;-51
2020/12/23 00:33:09;;;;;;;40.70;23.63;;;;;;;;;;5052673;28;20936;-52
2020/12/23 00:35:35;;;;;;;38.43;21.37;;;;;;;;;;5052674;28;20446;-53
2020/12/23 00:38:01;;;;;;;35.20;20.00;;;;;;;;;;5052780;28;20407;-50
2020/12/23 00:40:27;;;;;;;34.63;17.90;;;;;;;;;;5052541;28;20484;-50
2020/12/23 00:42:52;;;;;;;39.57;20.13;;;;;;;;;;5052400;28;20420;-51
2020/12/23 00:45:18;;;;;;;39.23;19.23;;;;;;;;;;5049398;28;20436;-52
2020/12/23 00:47:47;;;;;;;37.67;19.97;;;;;;;;;;5052613;28;20493;-52
2020/12/23 00:50:12;;;;;;;37.93;19.77;;;;;;;;;;5052591;28;20543;-52
2020/12/23 00:52:38;;;;;;;39.23;18.53;;;;;;;;;;5052035;28;20984;-50
2020/12/23 00:55:04;;;;;;;36.23;17.97;;;;;;;;;;5052459;28;21059;-50
2020/12/23 00:57:30;;;;;;;39.07;17.57;;;;;;;;;;5052238;28;20812;-50
2020/12/23 00:59:56;;;;;;;25.43;16.07;;;;;;;;;;5052476;28;20432;-50
2020/12/23 01:02:22;;;;;;;29.53;16.63;;;;;;;;;;5051835;28;20518;-52
2020/12/23 01:04:48;;;;;;;27.27;15.20;;;;;;;;;;5052219;28;20422;-50
2020/12/23 01:07:14;;;;;;;25.60;17.00;;;;;;;;;;5052042;28;20413;-50
2020/12/23 01:09:40;;;;;;;26.77;16.30;;;;;;;;;;5052159;28;20415;-51
2020/12/23 01:12:06;;;;;;;24.30;15.87;;;;;;;;;;5051722;28;20445;-52
2020/12/23 01:14:32;;;;;;;31.00;19.07;;;;;;;;;;5050030;28;20459;-52
2020/12/23 01:16:58;;;;;;;29.70;15.67;;;;;;;;;;5051946;28;21108;-50
2020/12/23 01:19:24;;;;;;;26.20;16.80;;;;;;;;;;5052054;28;20776;-50
2020/12/23 01:21:50;;;;;;;33.30;17.97;;;;;;;;;;5051469;28;20413;-50
2020/12/23 01:24:16;;;;;;;35.03;18.50;;;;;;;;;;5051854;28;20799;-50
2020/12/23 01:26:42;;;;;;;25.37;16.60;;;;;;;;;;5051850;28;20436;-50
2020/12/23 01:29:08;;;;;;;30.87;16.07;;;;;;;;;;5051711;28;20401;-50
2020/12/23 01:31:34;;;;;;;28.40;17.60;;;;;;;;;;5051473;28;20445;-51
2020/12/23 01:34:00;;;;;;;29.73;17.20;;;;;;;;;;5051605;28;20396;-51
2020/12/23 01:36:26;;;;;;;26.80;16.87;;;;;;;;;;5051559;28;20538;-52
2020/12/23 01:38:52;;;;;;;30.30;16.43;;;;;;;;;;5051383;28;20431;-53
2020/12/23 01:41:18;;;;;;;27.60;16.77;;;;;;;;;;5051252;28;20430;-50
2020/12/23 01:43:51;;;;;;;33.57;17.80;;;;;;;;;;5048584;28;20397;-50
2020/12/23 01:46:18;;;;;;;33.73;17.40;;;;;;;;;;5011979;28;20468;-50
2020/12/23 01:48:44;;;;;;;30.10;16.23;;;;;;;;;;5011607;28;20431;-52
2020/12/23 01:51:10;;;;;;;30.00;15.40;;;;;;;;;;5011439;28;20452;-50
2020/12/23 01:53:36;;;;;;;33.43;17.37;;;;;;;;;;5011557;28;20407;-50
2020/12/23 01:56:03;;;;;;;29.00;13.97;;;;;;;;;;5011777;28;20552;-50
2020/12/23 01:58:29;;;;;;;26.37;14.87;;;;;;;;;;5011673;28;20406;-50
2020/12/23 02:00:56;;;;;;;31.73;15.40;;;;;;;;;;5011152;28;20407;-50
2020/12/23 02:03:22;;;;;;;31.73;16.20;;;;;;;;;;5010766;28;20424;-50
2020/12/23 02:05:48;;;;;;;31.50;14.67;;;;;;;;;;5010920;28;20513;-50
2020/12/23 02:08:14;;;;;;;36.23;17.70;;;;;;;;;;5011775;28;20405;-50
2020/12/23 02:10:40;;;;;;;28.10;15.40;;;;;;;;;;5011632;28;20409;-50
2020/12/23 02:13:06;;;;;;;27.83;15.27;;;;;;;;;;5012605;28;20429;-50
2020/12/23 02:15:32;;;;;;;31.43;16.80;;;;;;;;;;5050144;28;20872;-50
2020/12/23 02:17:58;;;;;;;31.40;15.43;;;;;;;;;;5051354;28;20405;-50
2020/12/23 02:20:24;;;;;;;32.73;16.37;;;;;;;;;;5051126;28;20492;-50
2020/12/23 02:22:51;;;;;;;34.20;16.70;;;;;;;;;;5049711;28;20453;-50
2020/12/23 02:25:17;;;;;;;32.70;16.90;;;;;;;;;;5050663;28;20404;-50
2020/12/23 02:27:43;;;;;;;28.57;15.77;;;;;;;;;;5051025;28;20477;-50
2020/12/23 02:30:10;;;;;;;33.23;14.47;;;;;;;;;;5047429;28;20433;-54
2020/12/23 02:32:37;;;;;;;34.03;15.93;;;;;;;;;;5050513;28;20474;-50
2020/12/23 02:35:04;;;;;;;31.27;16.33;;;;;;;;;;5050893;28;20484;-50
2020/12/23 02:37:30;;;;;;;27.20;14.23;;;;;;;;;;5050639;28;20452;-51
2020/12/23 02:39:56;;;;;;;28.50;14.33;;;;;;;;;;5050707;28;20401;-52
2020/12/23 02:42:23;;;;;;;27.10;13.57;;;;;;;;;;5050256;28;20419;-52
2020/12/23 02:44:49;;;;;;;24.57;13.60;;;;;;;;;;5047545;28;20503;-50
2020/12/23 02:47:16;;;;;;;24.60;14.90;;;;;;;;;;5050469;28;20467;-49
2020/12/23 02:49:42;;;;;;;29.80;13.40;;;;;;;;;;5050840;28;20489;-51
2020/12/23 02:52:08;;;;;;;27.43;13.03;;;;;;;;;;5049963;28;20420;-51
2020/12/23 02:54:35;;;;;;;24.87;11.00;;;;;;;;;;5050569;28;20440;-50
2020/12/23 02:57:01;;;;;;;21.93;14.30;;;;;;;;;;5050353;28;20468;-50
2020/12/23 02:59:27;;;;;;;27.20;12.70;;;;;;;;;;5050549;28;20401;-51
2020/12/23 03:01:53;;;;;;;24.23;13.10;;;;;;;;;;5050069;28;21189;-50
2020/12/23 03:04:19;;;;;;;25.50;13.30;;;;;;;;;;5050411;28;20515;-49
2020/12/23 03:06:45;;;;;;;25.20;12.97;;;;;;;;;;5050409;28;20409;-50
2020/12/23 03:09:12;;;;;;;25.70;13.00;;;;;;;;;;5050281;28;20492;-50
2020/12/23 03:11:38;;;;;;;30.97;13.97;;;;;;;;;;5050093;28;20450;-50
2020/12/23 03:14:06;;;;;;;26.40;13.43;;;;;;;;;;5046918;28;20453;-51
2020/12/23 03:16:33;;;;;;;32.07;13.97;;;;;;;;;;5050240;28;20456;-50
2020/12/23 03:18:59;;;;;;;24.93;14.00;;;;;;;;;;5050431;28;20469;-50
2020/12/23 03:21:25;;;;;;;27.00;12.83;;;;;;;;;;5050498;28;20473;-50
2020/12/23 03:23:51;;;;;;;25.90;15.13;;;;;;;;;;5050179;28;20784;-52
2020/12/23 03:26:18;;;;;;;24.13;13.87;;;;;;;;;;5050318;28;20822;-50
2020/12/23 03:28:44;;;;;;;28.93;15.63;;;;;;;;;;5050055;28;20441;-52
2020/12/23 03:31:10;;;;;;;30.40;13.70;;;;;;;;;;5049854;28;20502;-50
2020/12/23 03:33:36;;;;;;;26.60;14.87;;;;;;;;;;5050069;28;20403;-51
2020/12/23 03:36:02;;;;;;;27.57;14.90;;;;;;;;;;5050055;28;20453;-51
2020/12/23 03:38:28;;;;;;;31.30;16.27;;;;;;;;;;5051797;28;20400;-50
2020/12/23 03:40:54;;;;;;;31.53;15.33;;;;;;;;;;5053855;28;20972;-50
2020/12/23 03:43:21;;;;;;;31.50;16.57;;;;;;;;;;5053473;28;20471;-50
2020/12/23 03:45:47;;;;;;;35.27;16.40;;;;;;;;;;5050240;28;20904;-50
2020/12/23 03:48:13;;;;;;;31.47;15.10;;;;;;;;;;5053748;28;20462;-52
2020/12/23 03:50:39;;;;;;;38.27;18.83;;;;;;;;;;5053446;28;20435;-52
2020/12/23 03:53:05;;;;;;;32.27;15.23;;;;;;;;;;5053379;28;20706;-52
2020/12/23 03:55:31;;;;;;;29.20;16.97;;;;;;;;;;5053470;28;20409;-50
2020/12/23 03:57:57;;;;;;;31.30;16.63;;;;;;;;;;5053568;28;20409;-51
2020/12/23 04:00:23;;;;;;;33.70;17.60;;;;;;;;;;5053421;28;20400;-50
2020/12/23 04:02:49;;;;;;;34.07;16.47;;;;;;;;;;5053225;28;20428;-50
2020/12/23 04:05:15;;;;;;;31.07;16.50;;;;;;;;;;5053201;28;20455;-50
2020/12/23 04:07:41;;;;;;;34.20;17.13;;;;;;;;;;5053440;28;20411;-51
2020/12/23 04:10:08;;;;;;;28.83;15.90;;;;;;;;;;5053274;28;20402;-51
2020/12/23 04:12:36;;;;;;;35.30;17.27;;;;;;;;;;5052882;28;20428;-50
2020/12/23 04:15:03;;;;;;;28.53;16.50;;;;;;;;;;5051827;28;20489;-51
2020/12/23 04:17:29;;;;;;;31.23;16.40;;;;;;;;;;5053060;28;20463;-50
2020/12/23 04:19:55;;;;;;;33.83;19.00;;;;;;;;;;5053190;28;20400;-50
2020/12/23 04:22:21;;;;;;;31.53;17.70;;;;;;;;;;5052706;28;20892;-50
2020/12/23 04:24:47;;;;;;;31.37;17.97;;;;;;;;;;5053468;28;20382;-50
2020/12/23 04:27:13;;;;;;;36.77;18.00;;;;;;;;;;5052920;28;20409;-50
2020/12/23 04:29:39;;;;;;;37.37;19.03;;;;;;;;;;5053157;28;20411;-50
2020/12/23 04:32:04;;;;;;;39.27;18.90;;;;;;;;;;5052681;28;20426;-50
2020/12/23 04:34:30;;;;;;;41.67;21.50;;;;;;;;;;5053119;28;20412;-50
2020/12/23 04:36:56;;;;;;;41.77;20.73;;;;;;;;;;5052938;28;20462;-51
2020/12/23 04:39:22;;;;;;;38.73;21.30;;;;;;;;;;5053139;28;20439;-52
2020/12/23 04:41:48;;;;;;;43.80;20.87;;;;;;;;;;5052530;28;20429;-53
2020/12/23 04:44:14;;;;;;;33.00;19.03;;;;;;;;;;5049737;28;20424;-54
2020/12/23 04:46:41;;;;;;;41.83;20.73;;;;;;;;;;5051962;28;20839;-54
2020/12/23 04:49:08;;;;;;;35.60;19.63;;;;;;;;;;5052195;28;20412;-50
2020/12/23 04:51:35;;;;;;;34.47;19.03;;;;;;;;;;5052404;28;20431;-50
2020/12/23 04:54:02;;;;;;;37.90;19.20;;;;;;;;;;5052504;28;20418;-51
2020/12/23 04:56:29;;;;;;;39.33;18.30;;;;;;;;;;5052519;28;20477;-50
2020/12/23 04:58:56;;;;;;;31.20;19.70;;;;;;;;;;5052378;28;20409;-51
2020/12/23 05:01:22;;;;;;;42.47;18.70;;;;;;;;;;5052144;28;20831;-50
2020/12/23 05:03:48;;;;;;;35.50;20.47;;;;;;;;;;5052171;28;20464;-50
2020/12/23 05:06:14;;;;;;;29.90;18.40;;;;;;;;;;5052427;28;20775;-50
2020/12/23 05:08:40;;;;;;;34.30;17.73;;;;;;;;;;5052107;28;20411;-50
2020/12/23 05:11:06;;;;;;;34.57;17.67;;;;;;;;;;5052210;28;20407;-50
2020/12/23 05:13:32;;;;;;;30.70;18.10;;;;;;;;;;5052113;28;20418;-50
2020/12/23 05:15:58;;;;;;;34.27;19.70;;;;;;;;;;5048680;28;20463;-50
2020/12/23 05:18:34;;;;;;;28.63;19.00;;;;;;;;;;5051956;28;20416;-50
2020/12/23 05:21:00;;;;;;;27.27;17.20;;;;;;;;;;5052052;28;20423;-50
2020/12/23 05:23:30;;;;;;;28.17;16.80;;;;;;;;;;5051706;28;20855;-50
2020/12/23 05:26:03;;;;;;;35.43;19.30;;;;;;;;;;5051934;28;20887;-50
2020/12/23 05:28:34;;;;;;;35.10;17.70;;;;;;;;;;5051827;28;20781;-52
2020/12/23 05:31:04;;;;;;;30.13;18.43;;;;;;;;;;5051728;28;20411;-52
2020/12/23 05:33:33;;;;;;;35.00;17.67;;;;;;;;;;5051634;28;20509;-50
2020/12/23 05:36:06;;;;;;;32.17;17.77;;;;;;;;;;5051502;28;20456;-52
2020/12/23 05:38:33;;;;;;;37.40;18.00;;;;;;;;;;5051710;28;20401;-51
2020/12/23 05:41:00;;;;;;;40.23;18.97;;;;;;;;;;5051436;28;20888;-54
2020/12/23 05:43:26;;;;;;;38.83;20.20;;;;;;;;;;5051228;28;20427;-52
2020/12/23 05:45:56;;;;;;;42.43;18.87;;;;;;;;;;5047468;28;20443;-50
2020/12/23 05:48:22;;;;;;;36.50;17.50;;;;;;;;;;5051421;28;20820;-52
2020/12/23 05:50:48;;;;;;;32.80;16.87;;;;;;;;;;5051314;28;20408;-52
2020/12/23 05:53:14;;;;;;;28.33;16.20;;;;;;;;;;5051073;28;20486;-52
2020/12/23 05:55:44;;;;;;;31.67;16.60;;;;;;;;;;5051248;28;20404;-51
2020/12/23 05:58:10;;;;;;;31.57;15.77;;;;;;;;;;5051304;28;20406;-51
2020/12/23 06:00:36;;;;;;;30.27;16.70;;;;;;;;;;5050376;28;20406;-53
2020/12/23 06:03:19;;;;;;;29.10;15.80;;;;;;;;;;5050772;28;20781;-50
2020/12/23 06:05:51;;;;;;;32.63;16.27;;;;;;;;;;5051095;28;20442;-52
2020/12/23 06:08:19;;;;;;;27.60;14.87;;;;;;;;;;5051220;28;20413;-52
2020/12/23 06:10:50;;;;;;;26.23;15.07;;;;;;;;;;5051053;28;20413;-50
2020/12/23 06:13:21;;;;;;;33.83;15.10;;;;;;;;;;5050801;28;20437;-51
2020/12/23 06:15:57;;;;;;;26.73;14.90;;;;;;;;;;5047274;28;20585;-51
2020/12/23 06:18:24;;;;;;;22.33;12.90;;;;;;;;;;5050123;28;20421;-50
2020/12/23 06:20:50;;;;;;;19.60;12.30;;;;;;;;;;5050982;28;20400;-50
2020/12/23 06:23:26;;;;;;;15.40;10.63;;;;;;;;;;5050483;28;20920;-50
2020/12/23 06:25:52;;;;;;;14.17;10.43;;;;;;;;;;5050917;28;20409;-51
2020/12/23 06:28:22;;;;;;;14.20;9.30;;;;;;;;;;5050697;28;20444;-53
2020/12/23 06:30:50;;;;;;;17.17;10.90;;;;;;;;;;5050859;28;20433;-50
2020/12/23 06:33:16;;;;;;;15.53;10.40;;;;;;;;;;5050324;28;20808;-50
2020/12/23 06:35:43;;;;;;;14.20;8.63;;;;;;;;;;5050706;28;20397;-50
2020/12/23 06:38:22;;;;;;;15.07;8.87;;;;;;;;;;5050644;28;20389;-53
2020/12/23 06:40:58;;;;;;;11.10;7.70;;;;;;;;;;5050932;28;20431;-50
2020/12/23 06:44:04;;;;;;;9.80;7.73;;;;;;;;;;5050333;28;20470;-50
2020/12/23 06:46:49;;;;;;;8.93;6.80;;;;;;;;;;5005520;28;20571;-50
2020/12/23 06:49:15;;;;;;;10.00;7.10;;;;;;;;;;5008572;28;20437;-51
2020/12/23 06:51:42;;;;;;;7.83;5.60;;;;;;;;;;5034300;28;20517;-51
2020/12/23 06:54:08;;;;;;;7.83;5.83;;;;;;;;;;5050718;28;20405;-51
2020/12/23 06:56:44;;;;;;;9.93;6.70;;;;;;;;;;5050580;28;20444;-50
2020/12/23 06:59:29;;;;;;;7.30;6.17;;;;;;;;;;5050582;28;20410;-52
2020/12/23 07:02:01;;;;;;;7.23;5.90;;;;;;;;;;5050183;28;20453;-52
2020/12/23 07:04:27;;;;;;;8.77;7.30;;;;;;;;;;5049578;28;20424;-55
2020/12/23 07:06:53;;;;;;;9.13;7.77;;;;;;;;;;5050063;28;20483;-50
2020/12/23 07:09:21;;;;;;;9.50;7.80;;;;;;;;;;5049888;28;20492;-50
2020/12/23 07:11:52;;;;;;;7.50;6.30;;;;;;;;;;5050360;28;20826;-50
2020/12/23 07:14:21;;;;;;;9.37;7.73;;;;;;;;;;5053010;28;20421;-50
2020/12/23 07:16:47;;;;;;;7.43;6.67;;;;;;;;;;5049746;28;20848;-51
2020/12/23 07:19:15;;;;;;;6.90;6.10;;;;;;;;;;5053887;28;20406;-50
2020/12/23 07:21:41;;;;;;;7.50;6.40;;;;;;;;;;5053307;28;20502;-51
2020/12/23 07:24:07;;;;;;;6.67;6.07;;;;;;;;;;5053439;28;20891;-51
2020/12/23 07:26:37;;;;;;;6.57;5.80;;;;;;;;;;5054231;28;20411;-50
2020/12/23 07:29:08;;;;;;;7.17;6.43;;;;;;;;;;5054089;28;20499;-51
2020/12/23 07:31:38;;;;;;;7.23;6.13;;;;;;;;;;5047891;28;20439;-50
2020/12/23 07:34:06;;;;;;;11.50;6.60;;;;;;;;;;5034095;28;20418;-50
2020/12/23 07:36:33;;;;;;;7.47;6.67;;;;;;;;;;5033838;28;20445;-52
2020/12/23 07:39:01;;;;;;;8.97;6.77;;;;;;;;;;5033763;28;20898;-53
2020/12/23 07:41:27;;;;;;;7.10;6.40;;;;;;;;;;5031728;28;20480;-51
2020/12/23 07:43:54;;;;;;;6.93;5.97;;;;;;;;;;5032436;28;20393;-51
2020/12/23 07:46:24;;;;;;;11.00;6.17;;;;;;;;;;5033220;28;20412;-51
2020/12/23 07:48:49;;;;;;;6.93;5.77;;;;;;;;;;5045632;28;20431;-52
2020/12/23 07:51:19;;;;;;;6.63;5.80;;;;;;;;;;5052800;28;20756;-53
2020/12/23 07:53:45;;;;;;;6.53;5.00;;;;;;;;;;5053202;28;20409;-51
2020/12/23 07:56:11;;;;;;;5.10;4.70;;;;;;;;;;5053517;28;20459;-50
2020/12/23 07:58:37;;;;;;;8.03;5.83;;;;;;;;;;5053654;28;20487;-51
2020/12/23 08:01:08;;;;;;;5.33;4.93;;;;;;;;;;5053542;28;20412;-51
2020/12/23 08:03:34;;;;;;;6.33;5.00;;;;;;;;;;5053532;28;20407;-53
2020/12/23 08:06:03;;;;;;;6.50;5.20;;;;;;;;;;5053478;28;20405;-51
2020/12/23 08:08:29;;;;;;;6.30;4.20;;;;;;;;;;5053500;28;20396;-51
2020/12/23 08:10:55;;;;;;;5.03;4.50;;;;;;;;;;5053395;28;20400;-51
2020/12/23 08:13:25;;;;;;;4.83;4.37;;;;;;;;;;5052921;28;20783;-51
2020/12/23 08:16:02;;;;;;;4.93;4.37;;;;;;;;;;5053243;28;20444;-51
2020/12/23 08:18:28;;;;;;;4.80;4.30;;;;;;;;;;5051388;28;20454;-51
2020/12/23 08:20:54;;;;;;;7.03;4.50;;;;;;;;;;5053213;28;21134;-51
2020/12/23 08:23:20;;;;;;;6.70;4.60;;;;;;;;;;5051878;28;20954;-51
2020/12/23 08:25:46;;;;;;;5.07;4.37;;;;;;;;;;5053131;28;20777;-51
2020/12/23 08:28:12;;;;;;;5.97;4.47;;;;;;;;;;5052957;28;20799;-53
2020/12/23 08:30:41;;;;;;;9.00;4.57;;;;;;;;;;5052973;28;20442;-51
2020/12/23 08:33:17;;;;;;;6.60;4.73;;;;;;;;;;5052397;28;20466;-51
2020/12/23 08:35:43;;;;;;;5.17;4.40;;;;;;;;;;5052900;28;20408;-51
2020/12/23 08:38:20;;;;;;;5.37;4.00;;;;;;;;;;5052756;28;20398;-50
2020/12/23 08:40:46;;;;;;;4.30;3.90;;;;;;;;;;5052793;28;20404;-50
2020/12/23 08:43:19;;;;;;;5.37;4.00;;;;;;;;;;5052282;28;20425;-52
2020/12/23 08:45:46;;;;;;;3.60;3.30;;;;;;;;;;5052773;28;20403;-50
2020/12/23 08:48:17;;;;;;;4.40;3.20;;;;;;;;;;5048886;28;20917;-51
2020/12/23 08:50:43;;;;;;;3.80;3.50;;;;;;;;;;5052620;28;20403;-51
2020/12/23 08:53:10;;;;;;;5.97;3.60;;;;;;;;;;5052407;28;20422;-51
2020/12/23 08:55:38;;;;;;;4.07;3.67;;;;;;;;;;5052361;28;20412;-52
2020/12/23 08:58:09;;;;;;;3.87;3.47;;;;;;;;;;5052445;28;20404;-51
2020/12/23 09:00:35;;;;;;;3.53;3.23;;;;;;;;;;5052349;28;20401;-51
2020/12/23 09:03:01;;;;;;;3.87;3.57;;;;;;;;;;5052091;28;20431;-52
2020/12/23 09:05:30;;;;;;;11.40;4.80;;;;;;;;;;5052148;28;20420;-51
2020/12/23 09:08:14;;;;;;;3.80;3.50;;;;;;;;;;5052295;28;20803;-53
2020/12/23 09:10:40;;;;;;;5.57;3.50;;;;;;;;;;5052132;28;20420;-51
2020/12/23 09:13:11;;;;;;;4.23;3.83;;;;;;;;;;5051832;28;20435;-51
2020/12/23 09:15:37;;;;;;;3.70;3.30;;;;;;;;;;5051857;28;20403;-51
2020/12/23 09:18:06;;;;;;;4.23;3.40;;;;;;;;;;5048565;28;20927;-52
2020/12/23 09:20:32;;;;;;;3.03;2.83;;;;;;;;;;5052487;28;20398;-53
2020/12/23 09:22:58;;;;;;;4.37;3.93;;;;;;;;;;5051676;28;20488;-52
2020/12/23 09:25:26;;;;;;;4.30;4.00;;;;;;;;;;5051893;28;20882;-53
2020/12/23 09:27:54;;;;;;;3.93;3.63;;;;;;;;;;5050872;28;20433;-52
2020/12/23 09:30:33;;;;;;;3.07;2.87;;;;;;;;;;5052024;28;20753;-53
2020/12/23 09:32:59;;;;;;;4.67;3.60;;;;;;;;;;5051631;28;20443;-52
2020/12/23 09:35:26;;;;;;;4.00;3.30;;;;;;;;;;5051803;28;20947;-51
2020/12/23 09:38:11;;;;;;;3.90;3.60;;;;;;;;;;5051701;28;20796;-52
2020/12/23 09:40:38;;;;;;;2.57;2.37;;;;;;;;;;5051968;28;20800;-52
2020/12/23 09:43:08;;;;;;;3.30;3.10;;;;;;;;;;5051262;28;20909;-54
2020/12/23 09:45:34;;;;;;;3.70;3.40;;;;;;;;;;5050362;28;20425;-54
2020/12/23 09:48:00;;;;;;;4.30;3.30;;;;;;;;;;5043510;28;20913;-53
2020/12/23 09:50:26;;;;;;;4.00;3.10;;;;;;;;;;5040273;28;20388;-53
2020/12/23 09:52:52;;;;;;;2.87;2.60;;;;;;;;;;5034037;28;20423;-53
2020/12/23 09:55:18;;;;;;;5.27;2.80;;;;;;;;;;5030102;28;20410;-53
2020/12/23 09:57:44;;;;;;;3.27;3.07;;;;;;;;;;5030711;28;20457;-52
2020/12/23 10:00:10;;;;;;;2.67;2.47;;;;;;;;;;5031047;28;20403;-53
2020/12/23 10:02:36;;;;;;;2.70;2.50;;;;;;;;;;5030434;28;20509;-53
2020/12/23 10:05:03;;;;;;;2.20;2.10;;;;;;;;;;5030738;28;20461;-53
2020/12/23 10:07:29;;;;;;;2.90;2.60;;;;;;;;;;5030884;28;20416;-53
2020/12/23 10:09:55;;;;;;;2.90;2.60;;;;;;;;;;5030000;28;20414;-52
2020/12/23 10:12:22;;;;;;;2.10;2.00;;;;;;;;;;5030444;28;20430;-52
2020/12/23 10:14:49;;;;;;;2.10;2.00;;;;;;;;;;5030617;28;20497;-53
2020/12/23 10:17:15;;;;;;;2.83;2.37;;;;;;;;;;5030076;28;20472;-52
2020/12/23 10:19:41;;;;;;;2.20;2.03;;;;;;;;;;5030620;28;20410;-53
2020/12/23 10:22:07;;;;;;;2.13;2.03;;;;;;;;;;5030271;28;20404;-54
2020/12/23 10:24:32;;;;;;;4.57;2.80;;;;;;;;;;5030182;28;20485;-52
2020/12/23 10:26:58;;;;;;;2.60;2.40;;;;;;;;;;5029334;28;20525;-51
2020/12/23 10:29:24;;;;;;;2.13;1.93;;;;;;;;;;5028445;28;20410;-53
2020/12/23 10:31:51;;;;;;;3.77;2.20;;;;;;;;;;5030618;28;20430;-52
2020/12/23 10:34:17;;;;;;;3.00;2.37;;;;;;;;;;5029605;28;20402;-51
2020/12/23 10:36:43;;;;;;;1.70;1.60;;;;;;;;;;5028381;28;20456;-51
2020/12/23 10:39:09;;;;;;;9.00;1.90;;;;;;;;;;5028929;28;20451;-51
2020/12/23 10:41:35;;;;;;;2.57;2.37;;;;;;;;;;5030048;28;21186;-52
2020/12/23 10:44:01;;;;;;;2.50;2.30;;;;;;;;;;5030736;28;20394;-52
2020/12/23 10:46:27;;;;;;;2.30;2.10;;;;;;;;;;5029865;28;20402;-53
2020/12/23 10:48:53;;;;;;;2.50;2.20;;;;;;;;;;5030601;28;20395;-51
2020/12/23 10:51:19;;;;;;;2.30;2.03;;;;;;;;;;5030045;28;20402;-52
2020/12/23 10:53:45;;;;;;;4.33;2.37;;;;;;;;;;5030661;28;20398;-53
2020/12/23 10:56:11;;;;;;;2.50;1.77;;;;;;;;;;5030131;28;20446;-50
2020/12/23 10:58:38;;;;;;;1.67;1.57;;;;;;;;;;5029354;28;20477;-52
2020/12/23 11:01:07;;;;;;;2.13;1.90;;;;;;;;;;5028052;28;20402;-56
2020/12/23 11:03:33;;;;;;;4.50;1.73;;;;;;;;;;5030204;28;20821;-51
2020/12/23 11:05:59;;;;;;;1.60;1.50;;;;;;;;;;5029710;28;20959;-51
2020/12/23 11:08:26;;;;;;;1.90;1.70;;;;;;;;;;5030036;28;20430;-53
2020/12/23 11:10:52;;;;;;;2.00;1.90;;;;;;;;;;5030474;28;20411;-53
2020/12/23 11:13:18;;;;;;;3.47;1.70;;;;;;;;;;5040538;28;20456;-52
2020/12/23 11:15:44;;;;;;;2.20;1.40;;;;;;;;;;5038100;28;20520;-51
2020/12/23 11:18:11;;;;;;;1.60;1.50;;;;;;;;;;5030341;28;20420;-51
2020/12/23 11:20:38;;;;;;;1.83;1.70;;;;;;;;;;5030585;28;20398;-50
2020/12/23 11:23:04;;;;;;;1.70;1.60;;;;;;;;;;5030559;28;20442;-54
2020/12/23 11:25:30;;;;;;;2.20;1.50;;;;;;;;;;5030634;28;20929;-55
2020/12/23 11:27:56;;;;;;;1.40;1.30;;;;;;;;;;5030135;28;20441;-54
2020/12/23 11:30:22;;;;;;;1.67;1.60;;;;;;;;;;5030096;28;20417;-51
2020/12/23 11:32:48;;;;;;;2.40;1.60;;;;;;;;;;5029951;28;20446;-52
2020/12/23 11:35:14;;;;;;;1.63;1.50;;;;;;;;;;5029521;28;20501;-51
2020/12/23 11:37:40;;;;;;;2.57;1.40;;;;;;;;;;5029946;28;20586;-52
2020/12/23 11:40:06;;;;;;;2.13;1.37;;;;;;;;;;5029856;28;20413;-52
2020/12/23 11:42:41;;;;;;;1.30;1.20;;;;;;;;;;5031332;28;20440;-52
2020/12/23 11:45:07;;;;;;;1.40;1.30;;;;;;;;;;5050010;28;20385;-52
2020/12/23 11:47:33;;;;;;;1.40;1.20;;;;;;;;;;5050127;28;20896;-52
2020/12/23 11:49:59;;;;;;;1.43;1.27;;;;;;;;;;5050036;28;20420;-51
2020/12/23 11:52:25;;;;;;;5.20;1.40;;;;;;;;;;5049505;28;20417;-52
2020/12/23 11:54:51;;;;;;;1.63;1.13;;;;;;;;;;5050033;28;20401;-52
2020/12/23 11:57:17;;;;;;;2.80;1.17;;;;;;;;;;5040065;28;20814;-52
2020/12/23 11:59:43;;;;;;;1.20;1.10;;;;;;;;;;5032776;28;20410;-53
2020/12/23 12:02:09;;;;;;;1.00;1.00;;;;;;;;;;5044764;28;20457;-51
2020/12/23 12:04:34;;;;;;;1.40;1.30;;;;;;;;;;5043255;28;20440;-52
2020/12/23 12:07:00;;;;;;;2.23;1.13;;;;;;;;;;5033910;28;20421;-53
2020/12/23 12:09:28;;;;;;;1.37;1.27;;;;;;;;;;5041402;28;20426;-52
2020/12/23 12:11:54;;;;;;;1.30;1.20;;;;;;;;;;5039517;28;20532;-51
2020/12/23 12:14:20;;;;;;;1.30;1.20;;;;;;;;;;5042952;28;20464;-53
2020/12/23 12:16:47;;;;;;;1.00;1.00;;;;;;;;;;5039004;28;20551;-52
2020/12/23 12:19:13;;;;;;;1.37;1.30;;;;;;;;;;5037942;28;20410;-52
2020/12/23 12:21:39;;;;;;;1.17;1.07;;;;;;;;;;5032476;28;20457;-52
2020/12/23 12:24:05;;;;;;;1.83;1.20;;;;;;;;;;5032808;28;20413;-52
2020/12/23 12:26:32;;;;;;;1.20;1.10;;;;;;;;;;5032766;28;20402;-53
2020/12/23 12:28:58;;;;;;;1.40;1.30;;;;;;;;;;5032460;28;21069;-52
2020/12/23 12:31:24;;;;;;;1.50;1.40;;;;;;;;;;5031692;28;20414;-52
2020/12/23 12:33:50;;;;;;;1.50;1.40;;;;;;;;;;5032374;28;20952;-52
2020/12/23 12:36:16;;;;;;;1.73;1.63;;;;;;;;;;5032258;28;20548;-53
2020/12/23 12:38:42;;;;;;;1.93;1.40;;;;;;;;;;5032277;28;20402;-51
2020/12/23 12:41:08;;;;;;;1.70;1.60;;;;;;;;;;5032149;28;20410;-51
2020/12/23 12:43:34;;;;;;;1.93;1.73;;;;;;;;;;5031203;28;20445;-52
2020/12/23 12:46:00;;;;;;;1.60;1.40;;;;;;;;;;5029685;28;20410;-51
2020/12/23 12:48:26;;;;;;;1.77;1.67;;;;;;;;;;5032501;28;20411;-50
2020/12/23 12:50:52;;;;;;;4.33;2.40;;;;;;;;;;5028700;28;20414;-51
2020/12/23 12:53:18;;;;;;;3.20;1.80;;;;;;;;;;5031696;28;20430;-51
2020/12/23 12:55:44;;;;;;;2.07;1.73;;;;;;;;;;5032094;28;20428;-50
2020/12/23 12:58:10;;;;;;;2.20;2.10;;;;;;;;;;5032562;28;20405;-52
2020/12/23 13:00:36;;;;;;;3.27;2.00;;;;;;;;;;5032363;28;20436;-53
2020/12/23 13:03:02;;;;;;;3.00;1.90;;;;;;;;;;5032201;28;20848;-53
2020/12/23 13:05:28;;;;;;;5.73;2.40;;;;;;;;;;5032116;28;20472;-51
2020/12/23 13:07:54;;;;;;;2.10;1.90;;;;;;;;;;5031842;28;20443;-51
2020/12/23 13:10:20;;;;;;;2.60;1.93;;;;;;;;;;5028931;28;20432;-53
2020/12/23 13:12:46;;;;;;;2.77;2.00;;;;;;;;;;5030822;28;20450;-53
2020/12/23 13:15:13;;;;;;;4.50;1.87;;;;;;;;;;5031900;28;20935;-51
2020/12/23 13:17:43;;;;;;;1.80;1.70;;;;;;;;;;5031652;28;20542;-51
2020/12/23 13:20:09;;;;;;;5.03;1.73;;;;;;;;;;5031802;28;20466;-51
2020/12/23 13:22:35;;;;;;;2.07;1.97;;;;;;;;;;5031151;28;21020;-53
2020/12/23 13:25:01;;;;;;;1.70;1.60;;;;;;;;;;5031751;28;20477;-53
2020/12/23 13:27:27;;;;;;;2.50;1.50;;;;;;;;;;5032766;28;20435;-54
2020/12/23 13:29:53;;;;;;;3.10;1.63;;;;;;;;;;5033651;28;20429;-53
2020/12/23 13:32:19;;;;;;;1.60;1.50;;;;;;;;;;5031558;28;20426;-51
2020/12/23 13:34:45;;;;;;;1.93;1.83;;;;;;;;;;5034172;28;20479;-52
2020/12/23 13:37:10;;;;;;;1.80;1.70;;;;;;;;;;5031482;28;20449;-51
2020/12/23 13:39:36;;;;;;;3.40;1.80;;;;;;;;;;5030778;28;20420;-53
2020/12/23 13:42:02;;;;;;;2.07;1.70;;;;;;;;;;5030001;28;20436;-54
2020/12/23 13:44:28;;;;;;;1.73;1.63;;;;;;;;;;5030481;28;20422;-52
2020/12/23 13:46:56;;;;;;;3.27;1.90;;;;;;;;;;5032827;28;20591;-52
2020/12/23 13:49:22;;;;;;;2.37;2.00;;;;;;;;;;5031138;28;20451;-53
2020/12/23 13:51:49;;;;;;;1.93;1.83;;;;;;;;;;5030766;28;20516;-53
2020/12/23 13:54:15;;;;;;;2.13;2.03;;;;;;;;;;5036547;28;20922;-53
2020/12/23 13:56:41;;;;;;;3.00;2.10;;;;;;;;;;5036791;28;20466;-53
2020/12/23 13:59:07;;;;;;;4.40;2.20;;;;;;;;;;5040581;28;20403;-53
2020/12/23 14:01:33;;;;;;;2.23;2.13;;;;;;;;;;5045045;28;20788;-52
2020/12/23 14:03:59;;;;;;;2.60;2.40;;;;;;;;;;5044487;28;20419;-53
2020/12/23 14:06:25;;;;;;;4.90;2.73;;;;;;;;;;5044254;28;20786;-52
2020/12/23 14:08:51;;;;;;;3.07;2.87;;;;;;;;;;5049058;28;20411;-53
2020/12/23 14:11:17;;;;;;;2.90;2.70;;;;;;;;;;5050881;28;20904;-53
2020/12/23 14:13:44;;;;;;;2.80;2.70;;;;;;;;;;5037507;28;20529;-53
2020/12/23 14:16:10;;;;;;;8.00;2.90;;;;;;;;;;5030217;28;20462;-53
2020/12/23 14:18:36;;;;;;;2.13;2.03;;;;;;;;;;5031570;28;20758;-54
2020/12/23 14:21:02;;;;;;;3.03;2.63;;;;;;;;;;5038491;28;20416;-53
2020/12/23 14:23:28;;;;;;;2.40;2.20;;;;;;;;;;5043617;28;20991;-53
2020/12/23 14:25:54;;;;;;;4.10;2.70;;;;;;;;;;5037739;28;20413;-52
2020/12/23 14:28:20;;;;;;;2.20;2.10;;;;;;;;;;5036062;28;20431;-52
2020/12/23 14:30:49;;;;;;;2.30;2.20;;;;;;;;;;5039960;28;20401;-53